Time;durP1;ratioP1;P1;durP2;ratioP2;P2;SDS_P1;SDS_P2;PMS_P1;PMS_P2;Temp;Humidity;BMP_temperature;BMP_pressure;BME280_temperature;BME280_humidity;BME280_pressure;Samples;Min_cycle;Max_cycle;Signal;HPM_P1;HPM_P2
2023/02/19 00:02:06;;;;;;;40.72;4.38;;;;;;;;;;4991428;28;20049;-43
2023/02/19 00:04:33;;;;;;;34.60;5.47;;;;;;;;;;4991773;28;20053;-43
2023/02/19 00:07:00;;;;;;;33.13;4.72;;;;;;;;;;4991654;28;20080;-43
2023/02/19 00:09:27;;;;;;;32.80;4.60;;;;;;;;;;4991614;28;20492;-43
2023/02/19 00:11:54;;;;;;;25.33;4.63;;;;;;;;;;4991712;28;20033;-43
2023/02/19 00:14:21;;;;;;;31.92;5.03;;;;;;;;;;4991424;28;20760;-43
2023/02/19 00:16:48;;;;;;;40.20;5.00;;;;;;;;;;4991780;28;20026;-43
2023/02/19 00:19:17;;;;;;;38.15;5.88;;;;;;;;;;4991822;28;20109;-43
2023/02/19 00:21:44;;;;;;;30.98;4.68;;;;;;;;;;4991552;28;20026;-43
2023/02/19 00:24:12;;;;;;;39.83;6.03;;;;;;;;;;4991850;28;20395;-44
2023/02/19 00:26:39;;;;;;;35.88;5.68;;;;;;;;;;4991602;28;20022;-43
2023/02/19 00:29:06;;;;;;;29.77;4.65;;;;;;;;;;5004389;28;20044;-43
2023/02/19 00:31:34;;;;;;;27.75;5.13;;;;;;;;;;5011203;28;20117;-43
2023/02/19 00:34:02;;;;;;;26.38;5.45;;;;;;;;;;5011067;28;20029;-43
2023/02/19 00:36:30;;;;;;;27.30;4.00;;;;;;;;;;5011169;28;20030;-43
2023/02/19 00:38:57;;;;;;;27.40;4.53;;;;;;;;;;5010957;28;20076;-43
2023/02/19 00:41:27;;;;;;;26.05;4.38;;;;;;;;;;5011084;28;20475;-42
2023/02/19 00:43:56;;;;;;;26.70;4.80;;;;;;;;;;5010868;28;20040;-43
2023/02/19 00:46:35;;;;;;;30.38;4.25;;;;;;;;;;5009588;28;20026;-43
2023/02/19 00:49:02;;;;;;;29.65;4.13;;;;;;;;;;5010710;28;20052;-42
2023/02/19 00:51:31;;;;;;;28.42;4.20;;;;;;;;;;5010961;28;20123;-43
2023/02/19 00:53:59;;;;;;;20.83;4.00;;;;;;;;;;5009475;28;20034;-43
2023/02/19 00:56:26;;;;;;;24.98;4.10;;;;;;;;;;5010893;28;20522;-42
2023/02/19 00:58:53;;;;;;;19.48;3.70;;;;;;;;;;5010856;28;20081;-43
2023/02/19 01:01:21;;;;;;;18.33;3.85;;;;;;;;;;5011040;28;20543;-43
2023/02/19 01:03:48;;;;;;;21.90;4.20;;;;;;;;;;5010807;28;20544;-44
2023/02/19 01:06:16;;;;;;;23.08;4.43;;;;;;;;;;5010755;28;20034;-43
2023/02/19 01:08:43;;;;;;;27.00;5.00;;;;;;;;;;5010608;28;20057;-42
2023/02/19 01:11:10;;;;;;;20.92;4.05;;;;;;;;;;5010843;28;20106;-43
2023/02/19 01:13:38;;;;;;;26.38;4.18;;;;;;;;;;5010928;28;20484;-43
2023/02/19 01:16:06;;;;;;;19.63;3.38;;;;;;;;;;5010867;28;20112;-43
2023/02/19 01:18:33;;;;;;;16.00;3.55;;;;;;;;;;5010570;28;20045;-42
2023/02/19 01:21:04;;;;;;;21.77;3.50;;;;;;;;;;5010759;28;20034;-43
2023/02/19 01:23:31;;;;;;;18.58;3.78;;;;;;;;;;5010858;28;20072;-43
2023/02/19 01:25:58;;;;;;;20.80;3.63;;;;;;;;;;5012934;28;20026;-43
2023/02/19 01:28:25;;;;;;;21.65;3.50;;;;;;;;;;5014066;28;20026;-43
2023/02/19 01:30:52;;;;;;;22.33;3.63;;;;;;;;;;5014142;28;20037;-43
2023/02/19 01:33:19;;;;;;;13.90;3.17;;;;;;;;;;5014221;28;20632;-43
2023/02/19 01:35:46;;;;;;;19.98;3.10;;;;;;;;;;5014145;28;20084;-43
2023/02/19 01:38:13;;;;;;;13.93;3.17;;;;;;;;;;5013954;28;20034;-43
2023/02/19 01:40:39;;;;;;;14.18;2.55;;;;;;;;;;5014112;28;20507;-43
2023/02/19 01:43:11;;;;;;;15.15;3.03;;;;;;;;;;5013998;28;20026;-43
2023/02/19 01:45:39;;;;;;;14.20;3.13;;;;;;;;;;5013991;28;20049;-43
2023/02/19 01:48:09;;;;;;;12.63;3.38;;;;;;;;;;5013769;28;20038;-43
2023/02/19 01:50:38;;;;;;;14.50;2.67;;;;;;;;;;5013681;28;20384;-43
2023/02/19 01:53:07;;;;;;;15.30;2.20;;;;;;;;;;5013654;28;20443;-43
2023/02/19 01:55:35;;;;;;;14.10;2.50;;;;;;;;;;5013769;28;20431;-44
2023/02/19 01:58:02;;;;;;;15.45;2.78;;;;;;;;;;5013531;28;20033;-42
2023/02/19 02:00:29;;;;;;;12.00;2.35;;;;;;;;;;5013663;28;20108;-43
2023/02/19 02:02:57;;;;;;;9.15;2.42;;;;;;;;;;5013338;28;20041;-43
2023/02/19 02:05:31;;;;;;;19.92;3.00;;;;;;;;;;5013536;28;20025;-43
2023/02/19 02:10:44;;;;;;;20.52;2.55;;;;;;;;;;5013774;28;20053;-43
2023/02/19 02:13:11;;;;;;;13.68;2.58;;;;;;;;;;5013523;28;20026;-43
2023/02/19 02:15:54;;;;;;;12.60;2.50;;;;;;;;;;5013315;28;20061;-43
2023/02/19 02:18:46;;;;;;;16.10;2.38;;;;;;;;;;5013338;28;20030;-43
2023/02/19 02:21:35;;;;;;;18.93;2.50;;;;;;;;;;5011797;28;20388;-43
2023/02/19 02:24:02;;;;;;;9.95;2.08;;;;;;;;;;5013226;28;20608;-43
2023/02/19 02:26:48;;;;;;;13.18;2.05;;;;;;;;;;5012989;28;20044;-43
2023/02/19 02:29:24;;;;;;;12.80;2.38;;;;;;;;;;5012896;28;20117;-43
2023/02/19 02:31:54;;;;;;;11.68;1.98;;;;;;;;;;5013022;28;20054;-43
2023/02/19 02:34:27;;;;;;;9.30;1.92;;;;;;;;;;5012952;28;20105;-43
2023/02/19 02:36:55;;;;;;;7.93;1.50;;;;;;;;;;5012869;28;20125;-43
2023/02/19 02:39:23;;;;;;;8.05;2.05;;;;;;;;;;5012720;28;20056;-43
2023/02/19 02:42:26;;;;;;;8.23;1.65;;;;;;;;;;5013003;28;20029;-43
2023/02/19 02:44:39;;;;;;;9.65;1.33;;;;;;;;;;5012715;28;20048;-43
2023/02/19 02:47:40;;;;;;;8.75;1.52;;;;;;;;;;5012814;28;20384;-43
2023/02/19 02:50:06;;;;;;;11.40;1.90;;;;;;;;;;5012478;28;20050;-43
2023/02/19 02:55:28;;;;;;;12.32;1.95;;;;;;;;;;4984419;28;20038;-43
2023/02/19 02:57:55;;;;;;;11.98;1.80;;;;;;;;;;5012486;28;20026;-43
2023/02/19 03:00:24;;;;;;;9.13;1.30;;;;;;;;;;5012530;28;20026;-43
2023/02/19 03:02:51;;;;;;;9.57;1.83;;;;;;;;;;5012366;28;20029;-43
2023/02/19 03:08:16;;;;;;;11.43;1.80;;;;;;;;;;5012324;28;20590;-43
2023/02/19 03:10:45;;;;;;;9.02;1.50;;;;;;;;;;5012406;28;20539;-43
2023/02/19 03:21:40;;;;;;;6.68;1.50;;;;;;;;;;5012423;28;20048;-43
2023/02/19 03:26:56;;;;;;;8.60;1.50;;;;;;;;;;5012178;28;20064;-43
2023/02/19 03:29:24;;;;;;;8.05;1.58;;;;;;;;;;5011908;28;20026;-43
2023/02/19 03:32:03;;;;;;;9.52;1.17;;;;;;;;;;5011886;28;20057;-43
2023/02/19 03:34:36;;;;;;;7.80;1.15;;;;;;;;;;5011916;28;20448;-43
2023/02/19 03:37:02;;;;;;;;;;;;;;;;;;5012404;28;20034;-43
2023/02/19 03:39:29;;;;;;;6.55;1.52;;;;;;;;;;5011857;28;19913;-43
2023/02/19 03:42:00;;;;;;;10.55;1.27;;;;;;;;;;5011862;28;20029;-43
2023/02/19 03:44:36;;;;;;;4.55;0.90;;;;;;;;;;5011749;28;20022;-43
2023/02/19 03:47:06;;;;;;;6.50;1.38;;;;;;;;;;5011838;28;20112;-43
2023/02/19 03:49:44;;;;;;;5.18;1.20;;;;;;;;;;5011001;28;20496;-43
2023/02/19 03:52:17;;;;;;;7.63;1.83;;;;;;;;;;5011797;28;20033;-43
2023/02/19 03:55:02;;;;;;;6.85;1.48;;;;;;;;;;5011646;28;20045;-43
2023/02/19 03:57:39;;;;;;;4.45;1.48;;;;;;;;;;5011531;28;20030;-43
2023/02/19 04:00:11;;;;;;;6.78;1.17;;;;;;;;;;5011652;28;20391;-43
2023/02/19 04:02:46;;;;;;;4.78;1.20;;;;;;;;;;5011531;28;20033;-44
2023/02/19 04:05:33;;;;;;;8.18;1.20;;;;;;;;;;5011745;28;20388;-43
2023/02/19 04:08:03;;;;;;;6.97;1.02;;;;;;;;;;5011276;28;20037;-43
2023/02/19 04:10:30;;;;;;;3.78;1.00;;;;;;;;;;5011570;28;20503;-43
2023/02/19 04:13:03;;;;;;;8.77;1.52;;;;;;;;;;5011501;28;20029;-43
2023/02/19 04:15:32;;;;;;;6.50;1.35;;;;;;;;;;5011231;28;20029;-43
2023/02/19 04:18:00;;;;;;;8.40;1.17;;;;;;;;;;5011515;28;20033;-42
2023/02/19 04:20:29;;;;;;;4.22;1.38;;;;;;;;;;5010026;28;20033;-43
2023/02/19 04:22:57;;;;;;;5.38;1.15;;;;;;;;;;5011339;28;20138;-43
2023/02/19 04:25:26;;;;;;;12.32;1.25;;;;;;;;;;5011089;28;20034;-43
2023/02/19 04:27:53;;;;;;;6.65;1.08;;;;;;;;;;5011160;28;20107;-43
2023/02/19 04:30:21;;;;;;;7.78;1.38;;;;;;;;;;5011249;28;20514;-43
2023/02/19 04:32:48;;;;;;;5.35;1.08;;;;;;;;;;5011284;28;20034;-43
2023/02/19 04:35:15;;;;;;;4.97;1.00;;;;;;;;;;5011244;28;20087;-43
2023/02/19 04:37:42;;;;;;;4.63;1.05;;;;;;;;;;5011144;28;20037;-43
2023/02/19 04:40:10;;;;;;;5.38;1.35;;;;;;;;;;5011057;28;20427;-43
2023/02/19 04:42:37;;;;;;;3.65;1.27;;;;;;;;;;5011066;28;20033;-43
2023/02/19 04:45:04;;;;;;;7.82;1.33;;;;;;;;;;5011221;28;20018;-44
2023/02/19 04:47:34;;;;;;;6.60;1.15;;;;;;;;;;5010998;28;20054;-44
2023/02/19 04:50:01;;;;;;;3.28;1.05;;;;;;;;;;5010930;28;20092;-43
2023/02/19 04:52:28;;;;;;;3.40;0.98;;;;;;;;;;5011029;28;20034;-43
2023/02/19 04:54:55;;;;;;;5.25;1.00;;;;;;;;;;5011077;28;20105;-43
2023/02/19 04:57:22;;;;;;;6.13;1.15;;;;;;;;;;5010935;28;20500;-43
2023/02/19 04:59:48;;;;;;;7.68;0.90;;;;;;;;;;5011537;28;20480;-43
2023/02/19 05:02:15;;;;;;;3.45;0.98;;;;;;;;;;5014749;28;20026;-43
2023/02/19 05:04:42;;;;;;;3.10;1.05;;;;;;;;;;5014800;28;20640;-43
2023/02/19 05:07:09;;;;;;;6.47;1.13;;;;;;;;;;5014451;28;20497;-42
2023/02/19 05:09:37;;;;;;;4.45;1.15;;;;;;;;;;5014059;28;20030;-44
2023/02/19 05:12:04;;;;;;;4.75;1.00;;;;;;;;;;5012803;28;20535;-44
2023/02/19 05:14:31;;;;;;;5.30;1.00;;;;;;;;;;5012821;28;20026;-45
2023/02/19 05:16:58;;;;;;;7.90;1.50;;;;;;;;;;5014200;28;20030;-45
2023/02/19 05:19:25;;;;;;;5.75;1.20;;;;;;;;;;5014249;28;20030;-44
2023/02/19 05:21:52;;;;;;;7.40;1.48;;;;;;;;;;5012891;28;20038;-42
2023/02/19 05:24:19;;;;;;;12.32;1.40;;;;;;;;;;5009956;28;20036;-43
2023/02/19 05:26:47;;;;;;;10.13;1.48;;;;;;;;;;5012902;28;20040;-43
2023/02/19 05:29:14;;;;;;;10.45;2.00;;;;;;;;;;5012476;28;20053;-44
2023/02/19 05:31:41;;;;;;;15.65;1.50;;;;;;;;;;5012684;28;20034;-45
2023/02/19 05:34:08;;;;;;;12.75;1.80;;;;;;;;;;5012851;28;20503;-45
2023/02/19 05:36:36;;;;;;;12.18;1.67;;;;;;;;;;5013595;28;20034;-43
2023/02/19 05:39:05;;;;;;;13.38;1.60;;;;;;;;;;5013602;28;20037;-44
2023/02/19 05:41:32;;;;;;;14.40;1.88;;;;;;;;;;5013961;28;20499;-44
2023/02/19 05:43:59;;;;;;;11.02;1.60;;;;;;;;;;5013974;28;20056;-45
2023/02/19 05:46:31;;;;;;;18.42;2.10;;;;;;;;;;5013872;28;20411;-44
2023/02/19 05:48:58;;;;;;;7.38;1.77;;;;;;;;;;5013390;28;20393;-44
2023/02/19 05:51:25;;;;;;;9.40;1.73;;;;;;;;;;5013915;28;20030;-44
2023/02/19 05:53:53;;;;;;;11.45;1.85;;;;;;;;;;5013447;28;20028;-44
2023/02/19 05:56:19;;;;;;;12.52;1.83;;;;;;;;;;5013812;28;20034;-44
2023/02/19 05:58:46;;;;;;;9.00;1.65;;;;;;;;;;5013698;28;20025;-45
2023/02/19 06:01:17;;;;;;;11.07;1.75;;;;;;;;;;5007905;28;20030;-44
2023/02/19 06:03:44;;;;;;;11.93;2.40;;;;;;;;;;4993300;28;20134;-43
2023/02/19 06:06:15;;;;;;;11.38;2.15;;;;;;;;;;4993784;28;20030;-43
2023/02/19 06:08:42;;;;;;;9.95;2.17;;;;;;;;;;4993754;28;20022;-43
2023/02/19 06:11:09;;;;;;;7.60;1.30;;;;;;;;;;4993565;28;20104;-42
2023/02/19 06:13:36;;;;;;;6.68;1.48;;;;;;;;;;4993968;28;20764;-42
2023/02/19 06:16:04;;;;;;;7.18;1.33;;;;;;;;;;4992037;28;20030;-43
2023/02/19 06:18:31;;;;;;;10.60;1.75;;;;;;;;;;4993730;28;20138;-42
2023/02/19 06:21:05;;;;;;;8.15;1.45;;;;;;;;;;4993545;28;20081;-42
2023/02/19 06:23:32;;;;;;;9.95;1.50;;;;;;;;;;4992432;28;20045;-42
2023/02/19 06:26:13;;;;;;;8.50;1.70;;;;;;;;;;4993622;28;20435;-44
2023/02/19 06:28:40;;;;;;;6.32;1.35;;;;;;;;;;4993423;28;20027;-44
2023/02/19 06:31:08;;;;;;;7.18;1.40;;;;;;;;;;4993462;28;20030;-45
2023/02/19 06:33:35;;;;;;;9.88;1.67;;;;;;;;;;4993525;28;20030;-44
2023/02/19 06:36:03;;;;;;;9.48;1.60;;;;;;;;;;4993447;28;20045;-44
2023/02/19 06:38:31;;;;;;;8.50;1.45;;;;;;;;;;4993104;28;20428;-44
2023/02/19 06:41:05;;;;;;;6.72;1.25;;;;;;;;;;4993203;28;20411;-44
2023/02/19 06:43:32;;;;;;;7.25;1.20;;;;;;;;;;4993155;28;20041;-44
2023/02/19 06:46:00;;;;;;;8.68;1.60;;;;;;;;;;4993170;28;20022;-44
2023/02/19 06:48:29;;;;;;;10.38;1.83;;;;;;;;;;4992921;28;20053;-44
2023/02/19 06:50:56;;;;;;;8.15;1.63;;;;;;;;;;4992956;28;20040;-44
2023/02/19 06:53:23;;;;;;;5.57;1.27;;;;;;;;;;4993040;28;20563;-44
2023/02/19 06:55:57;;;;;;;7.85;1.55;;;;;;;;;;4992952;28;20106;-44
2023/02/19 06:58:24;;;;;;;10.25;1.80;;;;;;;;;;4992902;28;20038;-45
2023/02/19 07:00:51;;;;;;;7.00;1.50;;;;;;;;;;4993064;28;20113;-44
2023/02/19 07:03:18;;;;;;;8.15;1.58;;;;;;;;;;4993076;28;20423;-44
2023/02/19 07:05:45;;;;;;;7.32;1.30;;;;;;;;;;5011246;28;20091;-42
2023/02/19 07:08:12;;;;;;;8.45;1.60;;;;;;;;;;5012173;28;20100;-43
2023/02/19 07:10:39;;;;;;;10.68;1.45;;;;;;;;;;5012459;28;20084;-43
2023/02/19 07:13:06;;;;;;;7.80;1.40;;;;;;;;;;5012393;28;20041;-42
2023/02/19 07:15:33;;;;;;;5.57;1.27;;;;;;;;;;5012281;28;20026;-43
2023/02/19 07:18:00;;;;;;;6.47;1.20;;;;;;;;;;5012190;28;20076;-43
2023/02/19 07:20:27;;;;;;;8.10;1.85;;;;;;;;;;5012159;28;20026;-43
2023/02/19 07:22:54;;;;;;;4.00;1.27;;;;;;;;;;5011409;28;20498;-43
2023/02/19 07:25:21;;;;;;;10.07;1.60;;;;;;;;;;5012184;28;20026;-43
2023/02/19 07:27:48;;;;;;;8.68;1.50;;;;;;;;;;5011942;28;20030;-43
2023/02/19 07:30:15;;;;;;;4.50;1.17;;;;;;;;;;5012055;28;20077;-43
2023/02/19 07:32:44;;;;;;;3.58;1.13;;;;;;;;;;5011992;28;20030;-42
2023/02/19 07:35:11;;;;;;;5.00;0.88;;;;;;;;;;5011845;28;20061;-43
2023/02/19 07:37:38;;;;;;;4.90;1.17;;;;;;;;;;5011615;28;20435;-43
2023/02/19 07:40:05;;;;;;;3.97;1.35;;;;;;;;;;5011902;28;20105;-43
2023/02/19 07:42:32;;;;;;;3.72;1.27;;;;;;;;;;5011904;28;20088;-43
2023/02/19 07:44:59;;;;;;;6.90;1.30;;;;;;;;;;5011769;28;20030;-42
2023/02/19 07:47:26;;;;;;;5.68;1.50;;;;;;;;;;5011474;28;20038;-42
2023/02/19 07:49:53;;;;;;;6.93;1.20;;;;;;;;;;5011422;28;20127;-43
2023/02/19 07:52:20;;;;;;;6.32;1.20;;;;;;;;;;5011726;28;20022;-43
2023/02/19 07:54:47;;;;;;;3.38;1.20;;;;;;;;;;5011670;28;20117;-43
2023/02/19 07:57:14;;;;;;;6.00;1.15;;;;;;;;;;5011593;28;20030;-43
2023/02/19 07:59:40;;;;;;;4.25;1.15;;;;;;;;;;5010057;28;20396;-43
2023/02/19 08:05:03;;;;;;;4.35;1.23;;;;;;;;;;5011907;28;20092;-42
2023/02/19 08:07:36;;;;;;;5.15;1.10;;;;;;;;;;5011315;28;20022;-43
2023/02/19 08:15:44;;;;;;;5.45;1.20;;;;;;;;;;5011611;28;20101;-43
2023/02/19 08:18:11;;;;;;;3.33;0.90;;;;;;;;;;5009794;28;20041;-43
2023/02/19 08:20:38;;;;;;;3.58;0.95;;;;;;;;;;5009867;28;20080;-43
2023/02/19 08:23:05;;;;;;;6.93;1.15;;;;;;;;;;5011327;28;20096;-43
2023/02/19 08:25:32;;;;;;;7.35;1.05;;;;;;;;;;5011398;28;20499;-43
2023/02/19 08:27:59;;;;;;;4.00;0.98;;;;;;;;;;5011138;28;20846;-43
2023/02/19 08:30:27;;;;;;;3.55;1.27;;;;;;;;;;5011213;28;20076;-43
2023/02/19 08:32:54;;;;;;;6.40;1.10;;;;;;;;;;5011263;28;20026;-43
2023/02/19 08:35:22;;;;;;;4.05;1.00;;;;;;;;;;5014306;28;20072;-43
2023/02/19 08:37:49;;;;;;;7.93;1.65;;;;;;;;;;5015053;28;20046;-42
2023/02/19 08:40:16;;;;;;;5.55;1.00;;;;;;;;;;5015254;28;20057;-43
2023/02/19 08:42:43;;;;;;;4.47;1.02;;;;;;;;;;5013818;28;20032;-43
2023/02/19 08:45:10;;;;;;;2.42;0.90;;;;;;;;;;5015174;28;20041;-43
2023/02/19 08:47:37;;;;;;;5.40;0.90;;;;;;;;;;5014884;28;20026;-43
2023/02/19 08:50:05;;;;;;;3.05;1.27;;;;;;;;;;5014862;28;20054;-44
2023/02/19 08:52:32;;;;;;;3.55;1.00;;;;;;;;;;5014884;28;20041;-43
2023/02/19 08:54:59;;;;;;;3.70;0.90;;;;;;;;;;5015038;28;20034;-43
2023/02/19 08:57:28;;;;;;;4.55;0.85;;;;;;;;;;5014804;28;20081;-43
2023/02/19 08:59:58;;;;;;;5.90;1.02;;;;;;;;;;5014849;28;20133;-43
2023/02/19 09:02:25;;;;;;;2.45;1.02;;;;;;;;;;5014779;28;20045;-43
2023/02/19 09:04:52;;;;;;;2.75;1.08;;;;;;;;;;5014666;28;20104;-43
2023/02/19 09:07:19;;;;;;;4.53;0.93;;;;;;;;;;5014604;28;20026;-43
2023/02/19 09:09:46;;;;;;;2.70;1.15;;;;;;;;;;5014581;28;20041;-44
2023/02/19 09:12:13;;;;;;;3.97;0.90;;;;;;;;;;5014602;28;20026;-43
2023/02/19 09:14:40;;;;;;;5.05;1.13;;;;;;;;;;5014582;28;20030;-43
2023/02/19 09:17:08;;;;;;;2.50;1.10;;;;;;;;;;5014432;28;20029;-42
2023/02/19 09:19:35;;;;;;;2.00;0.90;;;;;;;;;;5014493;28;20065;-42
2023/02/19 09:22:02;;;;;;;3.67;1.20;;;;;;;;;;5014281;28;20450;-43
2023/02/19 09:24:29;;;;;;;1.80;0.90;;;;;;;;;;5014337;28;20107;-43
2023/02/19 09:26:56;;;;;;;4.85;0.90;;;;;;;;;;5014199;28;20026;-43
2023/02/19 09:29:27;;;;;;;6.78;1.17;;;;;;;;;;5014184;28;20045;-42
2023/02/19 09:31:57;;;;;;;2.33;0.70;;;;;;;;;;5014301;28;20021;-43
2023/02/19 09:34:25;;;;;;;5.05;1.10;;;;;;;;;;5014122;28;20030;-43
2023/02/19 09:36:52;;;;;;;2.65;0.93;;;;;;;;;;5014032;28;20034;-43
2023/02/19 09:39:19;;;;;;;3.15;0.80;;;;;;;;;;5014150;28;20061;-43
2023/02/19 09:41:51;;;;;;;3.03;0.98;;;;;;;;;;5013983;28;20029;-43
2023/02/19 09:44:26;;;;;;;4.60;1.10;;;;;;;;;;5012661;28;20388;-43
2023/02/19 09:46:53;;;;;;;1.65;0.80;;;;;;;;;;5013158;28;20038;-43
2023/02/19 09:49:20;;;;;;;5.05;1.02;;;;;;;;;;5013643;28;20826;-44
2023/02/19 09:52:13;;;;;;;3.35;0.80;;;;;;;;;;5013976;28;20116;-44
2023/02/19 09:54:39;;;;;;;;;;;;;;;;;;5012464;28;20526;-44
2023/02/19 09:57:10;;;;;;;2.22;0.90;;;;;;;;;;5013556;28;19941;-44
2023/02/19 09:59:41;;;;;;;4.25;0.80;;;;;;;;;;5013746;28;20509;-44
2023/02/19 10:02:15;;;;;;;2.10;0.63;;;;;;;;;;5013677;28;20030;-44
2023/02/19 10:04:43;;;;;;;5.00;0.77;;;;;;;;;;5013721;28;20022;-44
2023/02/19 10:07:14;;;;;;;2.92;0.80;;;;;;;;;;5013439;28;20554;-44
2023/02/19 10:09:41;;;;;;;1.17;0.68;;;;;;;;;;5013384;28;20025;-44
2023/02/19 10:12:14;;;;;;;3.95;0.90;;;;;;;;;;5013574;28;20026;-44
2023/02/19 10:14:50;;;;;;;4.45;1.13;;;;;;;;;;5013379;28;20038;-44
2023/02/19 10:17:25;;;;;;;1.85;0.80;;;;;;;;;;5011889;28;20538;-44
2023/02/19 10:19:53;;;;;;;3.08;1.00;;;;;;;;;;5013331;28;20030;-44
2023/02/19 10:22:20;;;;;;;3.45;0.80;;;;;;;;;;5013369;28;20018;-44
2023/02/19 10:24:50;;;;;;;4.55;0.80;;;;;;;;;;5013246;28;20473;-44
2023/02/19 10:27:17;;;;;;;3.33;0.80;;;;;;;;;;5013003;28;20113;-44
2023/02/19 10:29:46;;;;;;;3.28;0.60;;;;;;;;;;5011865;28;20480;-45
2023/02/19 10:32:19;;;;;;;3.90;0.88;;;;;;;;;;5013226;28;20073;-44
2023/02/19 10:34:47;;;;;;;4.90;1.00;;;;;;;;;;5012977;28;20066;-44
2023/02/19 10:37:16;;;;;;;4.15;0.82;;;;;;;;;;5012608;28;20034;-44
2023/02/19 10:39:45;;;;;;;5.65;0.85;;;;;;;;;;5012904;28;20034;-44
2023/02/19 10:42:16;;;;;;;4.40;0.90;;;;;;;;;;5012831;28;20034;-44
2023/02/19 10:44:45;;;;;;;2.90;0.90;;;;;;;;;;5012942;28;20034;-44
2023/02/19 10:47:17;;;;;;;3.53;0.75;;;;;;;;;;5012699;28;20046;-44
2023/02/19 10:49:47;;;;;;;4.15;1.15;;;;;;;;;;5012456;28;20049;-44
2023/02/19 10:52:20;;;;;;;7.35;1.00;;;;;;;;;;5012679;28;20038;-45
2023/02/19 10:55:07;;;;;;;5.70;1.25;;;;;;;;;;5012649;28;20357;-44
2023/02/19 10:57:36;;;;;;;4.22;1.15;;;;;;;;;;5004326;28;20049;-44
2023/02/19 11:00:21;;;;;;;3.53;0.80;;;;;;;;;;5012543;28;20044;-44
2023/02/19 11:02:48;;;;;;;5.95;0.90;;;;;;;;;;5012445;28;20088;-44
2023/02/19 11:05:18;;;;;;;2.05;0.75;;;;;;;;;;5012403;28;20088;-44
2023/02/19 11:07:49;;;;;;;6.32;0.90;;;;;;;;;;5012111;28;20034;-44
2023/02/19 11:10:30;;;;;;;2.80;0.70;;;;;;;;;;5012339;28;20029;-44
2023/02/19 11:12:59;;;;;;;5.45;1.10;;;;;;;;;;5012506;28;20029;-44
2023/02/19 11:15:32;;;;;;;4.05;1.08;;;;;;;;;;5012251;28;20039;-44
2023/02/19 11:18:02;;;;;;;4.47;1.00;;;;;;;;;;5012029;28;20558;-44
2023/02/19 11:20:30;;;;;;;2.70;0.80;;;;;;;;;;5012275;28;20026;-45
2023/02/19 11:23:04;;;;;;;3.03;0.88;;;;;;;;;;5012373;28;20037;-44
2023/02/19 11:25:31;;;;;;;3.53;0.90;;;;;;;;;;5012224;28;20434;-44
2023/02/19 11:27:58;;;;;;;3.60;0.93;;;;;;;;;;5011865;28;20034;-44
2023/02/19 11:30:28;;;;;;;4.55;1.33;;;;;;;;;;5012029;28;20088;-44
2023/02/19 11:32:55;;;;;;;4.20;0.98;;;;;;;;;;5012106;28;20029;-44
2023/02/19 11:35:24;;;;;;;4.93;1.10;;;;;;;;;;5011993;28;20034;-44
2023/02/19 11:37:58;;;;;;;3.13;0.95;;;;;;;;;;5011775;28;20122;-44
2023/02/19 11:40:45;;;;;;;4.60;1.10;;;;;;;;;;5011795;28;20033;-44
2023/02/19 11:43:30;;;;;;;3.35;0.98;;;;;;;;;;5004822;28;20045;-44
2023/02/19 11:46:04;;;;;;;5.78;1.00;;;;;;;;;;5011742;28;20076;-44
2023/02/19 11:48:41;;;;;;;6.15;0.90;;;;;;;;;;5011382;28;20049;-44
2023/02/19 11:51:34;;;;;;;5.43;1.27;;;;;;;;;;5011585;28;20033;-44
2023/02/19 11:54:12;;;;;;;6.22;1.10;;;;;;;;;;5009934;28;20387;-44
2023/02/19 11:56:41;;;;;;;5.45;1.17;;;;;;;;;;5011521;28;20165;-44
2023/02/19 11:59:17;;;;;;;5.85;1.10;;;;;;;;;;5010194;28;20128;-45
2023/02/19 12:02:00;;;;;;;3.85;1.10;;;;;;;;;;5011427;28;20029;-44
2023/02/19 12:04:44;;;;;;;4.75;1.05;;;;;;;;;;5011504;28;20802;-44
2023/02/19 12:07:23;;;;;;;6.28;1.35;;;;;;;;;;5010018;28;20369;-46
2023/02/19 12:10:08;;;;;;;4.10;0.93;;;;;;;;;;5010960;28;20484;-44
2023/02/19 12:12:35;;;;;;;6.57;1.40;;;;;;;;;;5011431;28;20030;-44
2023/02/19 12:15:09;;;;;;;5.70;0.90;;;;;;;;;;5010709;28;20038;-44
2023/02/19 12:17:36;;;;;;;5.55;1.10;;;;;;;;;;5009504;28;20034;-44
2023/02/19 12:20:12;;;;;;;5.45;1.00;;;;;;;;;;5009797;28;20116;-44
2023/02/19 12:22:42;;;;;;;3.95;1.00;;;;;;;;;;5007740;28;20379;-45
2023/02/19 12:25:22;;;;;;;6.70;0.80;;;;;;;;;;5010055;28;20040;-44
2023/02/19 12:27:55;;;;;;;5.57;1.23;;;;;;;;;;5008742;28;20030;-42
2023/02/19 12:30:48;;;;;;;5.55;1.00;;;;;;;;;;5006681;28;20053;-42
2023/02/19 12:33:33;;;;;;;7.47;1.42;;;;;;;;;;4991510;28;20033;-43
2023/02/19 12:36:06;;;;;;;3.75;1.10;;;;;;;;;;4991409;28;20026;-42
2023/02/19 12:38:36;;;;;;;4.78;1.55;;;;;;;;;;5015556;28;20137;-43
2023/02/19 12:41:09;;;;;;;3.78;1.40;;;;;;;;;;5018230;28;20030;-43
2023/02/19 12:43:38;;;;;;;4.95;1.65;;;;;;;;;;5018321;28;20069;-43
2023/02/19 12:46:12;;;;;;;9.57;1.30;;;;;;;;;;5015423;28;20059;-44
2023/02/19 12:48:39;;;;;;;8.43;1.90;;;;;;;;;;5020091;28;20030;-45
2023/02/19 12:51:06;;;;;;;10.10;2.55;;;;;;;;;;5020606;28;20029;-44
2023/02/19 12:53:36;;;;;;;5.80;2.45;;;;;;;;;;5019495;28;20038;-42
2023/02/19 12:56:05;;;;;;;9.70;3.05;;;;;;;;;;5018258;28;20030;-44
2023/02/19 12:58:37;;;;;;;6.40;2.60;;;;;;;;;;5014063;28;20030;-42
2023/02/19 13:01:06;;;;;;;10.27;3.03;;;;;;;;;;5008349;28;20105;-44
2023/02/19 13:03:56;;;;;;;11.88;3.55;;;;;;;;;;5010901;28;20128;-44
2023/02/19 13:06:31;;;;;;;7.57;2.97;;;;;;;;;;4978145;28;20050;-48
2023/02/19 13:09:01;;;;;;;12.00;3.28;;;;;;;;;;5009159;28;20038;-48
2023/02/19 13:11:40;;;;;;;13.73;3.60;;;;;;;;;;5010815;28;20033;-49
2023/02/19 13:14:12;;;;;;;11.95;3.78;;;;;;;;;;5009048;28;20084;-47
2023/02/19 13:16:41;;;;;;;14.63;4.03;;;;;;;;;;5008930;28;20063;-47
2023/02/19 13:19:13;;;;;;;9.05;3.45;;;;;;;;;;5010181;28;20030;-45
2023/02/19 13:24:27;;;;;;;12.93;4.00;;;;;;;;;;5012593;28;19916;-44
2023/02/19 13:27:00;;;;;;;12.07;3.70;;;;;;;;;;5011641;28;20041;-41
2023/02/19 13:29:45;;;;;;;15.13;3.30;;;;;;;;;;5013007;28;20034;-43
2023/02/19 13:32:32;;;;;;;8.30;3.20;;;;;;;;;;5014114;28;20830;-43
2023/02/19 13:35:09;;;;;;;10.35;3.35;;;;;;;;;;5012008;28;20042;-45
2023/02/19 13:37:36;;;;;;;10.93;3.20;;;;;;;;;;5011793;28;20030;-45
2023/02/19 13:40:17;;;;;;;11.05;3.33;;;;;;;;;;5004502;28;20033;-47
2023/02/19 13:42:51;;;;;;;17.38;3.78;;;;;;;;;;5013142;28;20038;-46
2023/02/19 13:45:22;;;;;;;9.07;3.05;;;;;;;;;;5012535;28;20064;-47
2023/02/19 13:47:58;;;;;;;9.90;3.53;;;;;;;;;;5011487;28;20030;-46
2023/02/19 13:50:27;;;;;;;13.18;3.10;;;;;;;;;;5012943;28;20052;-45
2023/02/19 13:52:55;;;;;;;12.80;3.00;;;;;;;;;;5012327;28;20519;-52
2023/02/19 13:55:45;;;;;;;9.75;3.05;;;;;;;;;;5011985;28;20084;-47
2023/02/19 13:58:30;;;;;;;10.73;3.22;;;;;;;;;;5010121;28;20061;-47
2023/02/19 14:00:59;;;;;;;14.25;2.72;;;;;;;;;;5011309;28;20454;-48
2023/02/19 14:03:50;;;;;;;11.43;3.10;;;;;;;;;;5011431;28;20526;-45
2023/02/19 14:06:17;;;;;;;10.85;2.67;;;;;;;;;;5003916;28;20511;-47
2023/02/19 14:08:55;;;;;;;14.38;2.55;;;;;;;;;;5012177;28;20076;-45
2023/02/19 14:11:40;;;;;;;15.52;2.70;;;;;;;;;;5010559;28;20112;-48
2023/02/19 14:14:27;;;;;;;14.15;2.45;;;;;;;;;;5007810;28;20088;-45
2023/02/19 14:17:03;;;;;;;15.77;2.80;;;;;;;;;;5009688;28;20038;-46
2023/02/19 14:19:36;;;;;;;18.60;2.60;;;;;;;;;;5011801;28;20100;-46
2023/02/19 14:22:23;;;;;;;17.15;2.65;;;;;;;;;;5011882;28;20030;-45
2023/02/19 14:24:52;;;;;;;17.45;3.05;;;;;;;;;;5011523;28;20041;-46
2023/02/19 14:27:19;;;;;;;20.98;3.35;;;;;;;;;;5011732;28;20032;-45
2023/02/19 14:29:46;;;;;;;22.60;3.25;;;;;;;;;;5011733;28;20041;-46
2023/02/19 14:32:17;;;;;;;22.60;3.10;;;;;;;;;;5011652;28;20042;-45
2023/02/19 14:34:45;;;;;;;29.65;3.72;;;;;;;;;;5006946;28;20079;-47
2023/02/19 14:37:21;;;;;;;27.80;3.75;;;;;;;;;;5011982;28;20091;-44
2023/02/19 14:39:50;;;;;;;30.75;3.38;;;;;;;;;;5009621;28;20037;-46
2023/02/19 14:42:22;;;;;;;23.85;4.03;;;;;;;;;;5011086;28;20129;-45
2023/02/19 14:44:49;;;;;;;24.93;3.13;;;;;;;;;;5010577;28;20040;-50
2023/02/19 14:47:18;;;;;;;47.03;4.93;;;;;;;;;;5011174;28;20495;-45
2023/02/19 14:49:45;;;;;;;34.90;4.25;;;;;;;;;;5010764;28;20487;-43
2023/02/19 14:52:19;;;;;;;30.42;4.00;;;;;;;;;;5010615;28;20046;-40
2023/02/19 14:54:58;;;;;;;40.55;4.05;;;;;;;;;;5009176;28;20423;-45
2023/02/19 14:57:28;;;;;;;39.28;4.25;;;;;;;;;;5010570;28;20060;-48
2023/02/19 14:59:56;;;;;;;30.67;3.88;;;;;;;;;;5011313;28;20121;-47
2023/02/19 15:02:24;;;;;;;33.33;4.07;;;;;;;;;;5009131;28;20099;-45
2023/02/19 15:04:52;;;;;;;34.60;4.65;;;;;;;;;;5009645;28;20030;-45
2023/02/19 15:07:22;;;;;;;35.75;4.63;;;;;;;;;;5011207;28;20026;-45
2023/02/19 15:09:50;;;;;;;41.03;4.57;;;;;;;;;;5010789;28;20054;-45
2023/02/19 15:12:19;;;;;;;38.13;5.00;;;;;;;;;;5009191;28;20027;-46
2023/02/19 15:14:47;;;;;;;34.13;4.55;;;;;;;;;;5009496;28;20058;-45
2023/02/19 15:17:22;;;;;;;37.05;4.47;;;;;;;;;;5010385;28;20037;-47
2023/02/19 15:19:49;;;;;;;40.00;4.65;;;;;;;;;;5010324;28;20026;-45
2023/02/19 15:22:19;;;;;;;35.20;5.03;;;;;;;;;;5009748;28;20041;-46
2023/02/19 15:24:46;;;;;;;36.15;4.47;;;;;;;;;;5011546;28;20033;-45
2023/02/19 15:27:18;;;;;;;36.38;4.80;;;;;;;;;;5011535;28;20471;-47
2023/02/19 15:29:47;;;;;;;44.22;4.50;;;;;;;;;;5010952;28;20041;-47